Terminal Aerodrome Forecast
Issued by NWS

Current Version | Previous Version | Graphics & Text | Print | Product List | Glossary On
Versions: 1 2 3 4 5 6 7 8 9 10 11 12 13 14 15
222
FTUS41 KILN 230526
TAFLUK
TAF
KLUK 230526Z 2306/2406 00000KT P6SM SKC
     FM230800 00000KT 3SM BR SCT002
      TEMPO 2309/2312 1SM BR
     FM231300 04005KT P6SM SKC=

USA.gov is the U.S. government's official web portal to all federal, state and local government web resources and services.